createdAt,value
2024-03-24T00:01:25.667Z,5.15
2024-03-24T00:03:53.645Z,4.91
2024-03-24T00:06:21.034Z,5.21
2024-03-24T00:08:52.761Z,5.47
2024-03-24T00:11:20.249Z,5.09
2024-03-24T00:13:47.940Z,4.95
2024-03-24T00:16:17.434Z,5.26
2024-03-24T00:18:45.122Z,4.99
2024-03-24T00:21:14.094Z,5.20
2024-03-24T00:23:41.875Z,4.99
2024-03-24T00:26:12.223Z,5.17
2024-03-24T00:28:39.697Z,5.04
2024-03-24T00:31:07.467Z,5.22
2024-03-24T00:33:34.909Z,5.00
2024-03-24T00:36:02.411Z,5.05
2024-03-24T00:38:29.971Z,5.00
2024-03-24T00:40:57.363Z,5.12
2024-03-24T00:43:41.286Z,4.80
2024-03-24T00:46:09.487Z,4.78
2024-03-24T00:48:37.149Z,4.97
2024-03-24T00:51:05.587Z,4.72
2024-03-24T00:53:33.604Z,5.03
2024-03-24T00:56:01.393Z,5.12
2024-03-24T00:58:29.415Z,4.99
2024-03-24T01:00:59.354Z,4.96
2024-03-24T01:03:27.042Z,5.20
2024-03-24T01:05:55.339Z,5.03
2024-03-24T01:08:22.838Z,4.78
2024-03-24T01:10:50.836Z,4.91
2024-03-24T01:13:18.250Z,4.43
2024-03-24T01:15:46.389Z,4.28
2024-03-24T01:18:16.319Z,4.16
2024-03-24T01:20:43.764Z,4.18
2024-03-24T01:23:11.414Z,4.56
2024-03-24T01:25:48.143Z,4.48
2024-03-24T01:28:15.931Z,4.88
2024-03-24T01:30:44.556Z,5.41
2024-03-24T01:33:11.996Z,5.24
2024-03-24T01:35:48.770Z,5.43
2024-03-24T01:38:18.517Z,5.63
2024-03-24T01:40:49.613Z,5.27
2024-03-24T01:43:17.751Z,5.09
2024-03-24T01:45:51.087Z,5.67
2024-03-24T01:48:18.886Z,4.99
2024-03-24T01:50:51.706Z,5.37
2024-03-24T01:53:21.532Z,5.28
2024-03-24T01:55:49.131Z,5.47
2024-03-24T01:58:17.016Z,4.97
2024-03-24T02:01:00.744Z,5.12
2024-03-24T02:03:28.828Z,4.82
2024-03-24T02:05:59.582Z,4.86
2024-03-24T02:08:30.005Z,4.87
2024-03-24T02:10:58.981Z,4.62
2024-03-24T02:13:27.158Z,4.39
2024-03-24T02:15:55.234Z,4.64
2024-03-24T02:18:23.636Z,4.59
2024-03-24T02:20:51.781Z,4.65
2024-03-24T02:23:22.096Z,4.34
2024-03-24T02:25:49.574Z,4.36
2024-03-24T02:28:17.889Z,4.27
2024-03-24T02:30:45.604Z,4.34
2024-03-24T02:33:14.142Z,4.16
2024-03-24T02:35:43.344Z,4.27
2024-03-24T02:38:10.754Z,3.99
2024-03-24T02:40:41.246Z,3.99
2024-03-24T02:43:09.629Z,4.08
2024-03-24T02:45:37.069Z,3.74
2024-03-24T02:48:06.044Z,3.42
2024-03-24T02:50:33.405Z,3.54
2024-03-24T02:53:01.298Z,3.41
2024-03-24T02:55:28.663Z,3.20
2024-03-24T02:57:58.538Z,2.99
2024-03-24T03:00:25.984Z,2.67
2024-03-24T03:02:53.737Z,2.38
2024-03-24T03:05:21.085Z,2.22
2024-03-24T03:07:48.481Z,2.38
2024-03-24T03:10:16.131Z,2.46
2024-03-24T03:12:43.749Z,2.54
2024-03-24T03:15:16.977Z,2.49
2024-03-24T03:17:44.435Z,2.90
2024-03-24T03:20:15.275Z,2.91
2024-03-24T03:22:42.717Z,2.60
2024-03-24T03:25:24.112Z,2.13
2024-03-24T03:27:52.397Z,2.02
2024-03-24T03:30:23.324Z,1.66
2024-03-24T03:32:52.455Z,1.45
2024-03-24T03:35:19.927Z,1.48
2024-03-24T03:37:47.318Z,1.56
2024-03-24T03:40:15.694Z,1.57
2024-03-24T03:42:43.092Z,1.55
2024-03-24T03:45:12.116Z,1.56
2024-03-24T03:47:42.485Z,1.55
2024-03-24T03:50:14.904Z,1.57
2024-03-24T03:52:48.626Z,1.65
2024-03-24T03:55:16.842Z,1.64
2024-03-24T03:57:44.998Z,1.83
2024-03-24T04:00:27.807Z,1.90
2024-03-24T04:02:59.516Z,1.72
2024-03-24T04:05:27.055Z,1.64
2024-03-24T04:07:54.451Z,1.77
2024-03-24T04:10:21.805Z,1.43
2024-03-24T04:12:49.156Z,1.28
2024-03-24T04:15:16.601Z,1.13
2024-03-24T04:17:44.571Z,1.23
2024-03-24T04:20:15.629Z,0.98
2024-03-24T04:22:44.814Z,1.28
2024-03-24T04:25:13.637Z,1.11
2024-03-24T04:27:41.660Z,1.37
2024-03-24T04:30:09.880Z,1.14
2024-03-24T04:32:37.300Z,1.23
2024-03-24T04:35:09.523Z,1.27
2024-03-24T04:37:40.156Z,0.99
2024-03-24T04:40:10.132Z,1.07
2024-03-24T04:42:45.374Z,1.22
2024-03-24T04:45:13.524Z,1.10
2024-03-24T04:47:42.207Z,1.26
2024-03-24T04:50:10.066Z,1.17
2024-03-24T04:52:44.460Z,1.39
2024-03-24T04:55:13.469Z,1.20
2024-03-24T04:57:41.518Z,1.23
2024-03-24T05:00:11.724Z,1.20
2024-03-24T05:02:39.147Z,1.36
2024-03-24T05:05:09.130Z,1.18
2024-03-24T05:07:36.859Z,1.32
2024-03-24T05:10:08.915Z,1.28
2024-03-24T05:12:36.859Z,1.13
2024-03-24T05:15:06.237Z,1.20
2024-03-24T05:17:34.061Z,1.43
2024-03-24T05:20:01.417Z,1.58
2024-03-24T05:22:28.780Z,1.70
2024-03-24T05:25:00.063Z,1.64
2024-03-24T05:27:30.648Z,1.55
2024-03-24T05:29:58.574Z,1.51
2024-03-24T05:32:25.983Z,1.65
2024-03-24T05:34:54.738Z,1.74
2024-03-24T05:37:22.180Z,1.95
2024-03-24T05:39:49.670Z,2.02
2024-03-24T05:42:17.079Z,2.16
2024-03-24T05:44:46.965Z,2.39
2024-03-24T05:47:15.368Z,2.37
2024-03-24T05:49:42.982Z,2.37
2024-03-24T05:52:10.369Z,2.10
2024-03-24T05:54:37.926Z,2.58
2024-03-24T05:57:05.975Z,2.67
2024-03-24T05:59:34.647Z,2.50
2024-03-24T06:02:05.117Z,2.31
2024-03-24T06:04:32.993Z,2.57
2024-03-24T06:07:16.658Z,2.89
2024-03-24T06:09:44.229Z,2.61
2024-03-24T06:12:11.617Z,2.64
2024-03-24T06:14:39.167Z,2.54
2024-03-24T06:17:09.068Z,2.14
2024-03-24T06:19:36.895Z,2.16
2024-03-24T06:22:04.870Z,2.36
2024-03-24T06:24:32.658Z,2.56
2024-03-24T06:27:01.467Z,2.65
2024-03-24T06:29:29.031Z,3.12
2024-03-24T06:31:56.407Z,3.16
2024-03-24T06:34:26.340Z,3.51
2024-03-24T06:36:54.019Z,3.45
2024-03-24T06:39:21.405Z,3.49
2024-03-24T06:41:51.061Z,3.62
2024-03-24T06:44:19.392Z,3.59
2024-03-24T06:46:46.915Z,3.32
2024-03-24T06:49:22.771Z,3.93
2024-03-24T06:51:52.942Z,4.47
2024-03-24T06:54:20.392Z,4.34
2024-03-24T06:56:47.843Z,3.84
2024-03-24T06:59:15.465Z,4.06
2024-03-24T07:01:42.954Z,4.00
2024-03-24T07:04:10.282Z,3.96
2024-03-24T07:06:37.953Z,3.80
2024-03-24T07:09:08.158Z,4.28
2024-03-24T07:11:35.616Z,4.32
2024-03-24T07:14:02.998Z,4.57
2024-03-24T07:16:36.344Z,4.75
2024-03-24T07:19:04.078Z,4.62
2024-03-24T07:21:31.498Z,4.31
2024-03-24T07:23:58.887Z,4.13
2024-03-24T07:26:33.399Z,4.41
2024-03-24T07:29:01.017Z,4.04
2024-03-24T07:31:35.249Z,4.04
2024-03-24T07:34:02.927Z,3.81
2024-03-24T07:36:33.355Z,3.87
2024-03-24T07:39:00.775Z,4.03
2024-03-24T07:41:31.043Z,4.01
2024-03-24T07:43:58.768Z,3.83
2024-03-24T07:46:32.788Z,4.45
2024-03-24T07:49:00.194Z,4.26
2024-03-24T07:51:28.113Z,4.52
2024-03-24T07:53:56.522Z,4.82
2024-03-24T07:56:24.429Z,4.95
2024-03-24T07:58:57.230Z,4.81
2024-03-24T08:01:25.046Z,4.86
2024-03-24T08:03:53.406Z,4.73
2024-03-24T08:06:20.808Z,3.96
2024-03-24T08:08:48.205Z,3.98
2024-03-24T08:11:16.760Z,3.80
2024-03-24T08:13:52.480Z,3.28
2024-03-24T08:16:22.867Z,3.28
2024-03-24T08:18:50.279Z,3.24
2024-03-24T08:21:17.687Z,3.30
2024-03-24T08:23:45.071Z,3.51
2024-03-24T08:26:13.690Z,3.62
2024-03-24T08:28:41.143Z,3.53
2024-03-24T08:31:08.982Z,4.12
2024-03-24T08:33:38.846Z,4.28
2024-03-24T08:36:08.835Z,4.12
2024-03-24T08:38:36.211Z,3.93
2024-03-24T08:41:03.802Z,4.19
2024-03-24T08:43:31.203Z,3.68
2024-03-24T08:45:58.594Z,3.80
2024-03-24T08:48:30.824Z,3.61
2024-03-24T08:51:04.996Z,4.16
2024-03-24T08:53:32.555Z,3.95
2024-03-24T08:56:07.880Z,3.99
2024-03-24T08:58:35.310Z,3.51
2024-03-24T09:01:04.530Z,3.26
2024-03-24T09:03:31.918Z,3.63
2024-03-24T09:05:59.662Z,3.89
2024-03-24T09:08:29.564Z,4.10
2024-03-24T09:10:58.494Z,3.60
2024-03-24T09:13:26.012Z,3.11
2024-03-24T09:15:53.759Z,3.03
2024-03-24T09:18:21.151Z,2.68
2024-03-24T09:20:48.652Z,3.06
2024-03-24T09:23:17.362Z,2.85
2024-03-24T09:25:47.404Z,2.74
2024-03-24T09:28:15.922Z,2.56
2024-03-24T09:30:43.322Z,2.24
2024-03-24T09:33:10.738Z,2.11
2024-03-24T09:35:39.117Z,1.93
2024-03-24T09:38:12.558Z,1.78
2024-03-24T09:40:43.075Z,1.65
2024-03-24T09:43:13.984Z,1.89
2024-03-24T09:45:41.614Z,1.93
2024-03-24T09:48:14.513Z,2.24
2024-03-24T09:50:43.372Z,2.40
2024-03-24T09:53:14.667Z,2.07
2024-03-24T09:55:42.749Z,2.31
2024-03-24T09:58:15.902Z,2.43
2024-03-24T10:00:45.250Z,2.22
2024-03-24T10:03:15.377Z,2.51
2024-03-24T10:05:43.986Z,2.88
2024-03-24T10:08:11.712Z,3.09
2024-03-24T10:10:39.140Z,2.94
2024-03-24T10:16:20.044Z,2.84
2024-03-24T10:18:47.970Z,3.34
2024-03-24T10:21:17.104Z,3.37
2024-03-24T10:23:45.686Z,3.23
2024-03-24T10:26:19.444Z,3.52
2024-03-24T10:28:47.902Z,3.77
2024-03-24T10:31:16.620Z,4.22
2024-03-24T10:33:46.982Z,4.54
2024-03-24T10:36:15.334Z,4.65
2024-03-24T10:38:43.891Z,4.98
2024-03-24T10:41:40.256Z,5.20
2024-03-24T10:44:17.828Z,5.41
2024-03-24T10:46:50.013Z,5.05
2024-03-24T10:49:22.646Z,5.18
2024-03-24T10:51:50.909Z,5.55
2024-03-24T10:54:20.226Z,5.68
2024-03-24T10:56:49.087Z,5.20
2024-03-24T10:59:21.469Z,5.49
2024-03-24T11:01:49.473Z,5.14
2024-03-24T11:04:17.020Z,5.97
2024-03-24T11:06:48.189Z,5.76
2024-03-24T11:09:34.608Z,5.42
2024-03-24T11:12:13.280Z,4.23
2024-03-24T11:14:43.502Z,4.83
2024-03-24T11:17:11.036Z,4.71
2024-03-24T11:19:47.656Z,4.62
2024-03-24T11:22:22.613Z,5.18
2024-03-24T11:24:55.550Z,4.16
2024-03-24T11:27:29.572Z,3.70
2024-03-24T11:29:59.679Z,3.81
2024-03-24T11:32:51.816Z,3.75
2024-03-24T11:35:20.468Z,3.78
2024-03-24T11:37:55.972Z,3.98
2024-03-24T11:40:26.963Z,3.94
2024-03-24T11:42:57.665Z,3.27
2024-03-24T11:45:29.996Z,3.80
2024-03-24T11:48:32.432Z,3.64
2024-03-24T11:51:05.202Z,3.90
2024-03-24T11:53:36.950Z,4.03
2024-03-24T11:56:07.498Z,3.27
2024-03-24T11:58:41.821Z,3.33
2024-03-24T12:01:10.147Z,4.25
2024-03-24T12:03:40.922Z,4.07
2024-03-24T12:06:09.975Z,4.16
2024-03-24T12:08:47.282Z,4.93
2024-03-24T12:11:19.548Z,4.28
2024-03-24T12:13:47.421Z,4.51
2024-03-24T12:16:20.428Z,4.83
2024-03-24T12:18:47.852Z,3.79
2024-03-24T12:21:20.613Z,4.21
2024-03-24T12:23:50.581Z,4.06
2024-03-24T12:26:20.585Z,4.38
2024-03-24T12:28:54.221Z,4.30
2024-03-24T12:31:21.834Z,4.54
2024-03-24T12:33:58.696Z,4.83
2024-03-24T12:36:26.778Z,3.61
2024-03-24T12:38:57.108Z,3.74
2024-03-24T12:41:24.789Z,3.62
2024-03-24T12:43:54.261Z,3.72
2024-03-24T12:46:26.374Z,3.84
2024-03-24T12:48:54.262Z,3.98
2024-03-24T12:51:22.609Z,4.28
2024-03-24T12:53:55.186Z,3.97
2024-03-24T12:56:26.284Z,4.23
2024-03-24T12:58:57.872Z,4.36
2024-03-24T13:01:27.257Z,4.56
2024-03-24T13:03:58.780Z,4.80
2024-03-24T13:06:32.038Z,5.18
2024-03-24T13:09:16.444Z,4.85
2024-03-24T13:11:46.892Z,4.46
2024-03-24T13:14:14.703Z,4.24
2024-03-24T13:16:49.622Z,4.38
2024-03-24T13:19:25.282Z,4.64
2024-03-24T13:21:58.234Z,4.81
2024-03-24T13:24:31.378Z,4.24
2024-03-24T13:27:09.195Z,4.34
2024-03-24T13:29:36.592Z,4.66
2024-03-24T13:32:05.004Z,4.49
2024-03-24T13:34:32.738Z,5.36
2024-03-24T13:37:13.405Z,4.58
2024-03-24T13:39:55.555Z,3.59
2024-03-24T13:42:43.391Z,3.88
2024-03-24T13:45:24.760Z,3.15
2024-03-24T13:48:06.362Z,3.35
2024-03-24T13:50:37.954Z,3.84
2024-03-24T13:53:08.655Z,3.84
2024-03-24T13:55:36.073Z,4.29
2024-03-24T13:58:21.174Z,4.24
2024-03-24T14:00:49.879Z,4.88
2024-03-24T14:03:18.048Z,4.91
2024-03-24T14:05:45.785Z,5.28
2024-03-24T14:08:14.784Z,5.70
2024-03-24T14:10:44.488Z,6.14
2024-03-24T14:13:32.786Z,5.10
2024-03-24T14:16:18.606Z,5.35
2024-03-24T14:18:56.374Z,5.09
2024-03-24T14:21:33.343Z,5.31
2024-03-24T14:24:12.498Z,5.24
2024-03-24T14:26:40.052Z,5.29
2024-03-24T14:29:09.935Z,5.13
2024-03-24T14:31:37.359Z,5.92
2024-03-24T14:34:04.768Z,5.53
2024-03-24T14:36:45.291Z,6.35
2024-03-24T14:39:29.212Z,6.09
2024-03-24T14:42:00.266Z,6.63
2024-03-24T14:44:50.994Z,6.29
2024-03-24T14:47:43.681Z,6.67
2024-03-24T14:50:11.506Z,5.64
2024-03-24T14:52:39.137Z,5.77
2024-03-24T14:55:07.480Z,6.20
2024-03-24T14:57:35.050Z,6.11
2024-03-24T15:00:14.465Z,7.14
2024-03-24T15:02:42.403Z,6.71
2024-03-24T15:05:11.211Z,6.58
2024-03-24T15:07:38.748Z,6.81
2024-03-24T15:10:09.564Z,6.73
2024-03-24T15:12:39.082Z,6.74
2024-03-24T15:15:09.770Z,6.83
2024-03-24T15:17:38.755Z,6.01
2024-03-24T15:20:09.773Z,6.74
2024-03-24T15:22:37.647Z,6.49
2024-03-24T15:25:09.422Z,6.95
2024-03-24T15:27:37.112Z,6.36
2024-03-24T15:30:08.610Z,6.39
2024-03-24T15:32:36.108Z,7.14
2024-03-24T15:35:05.106Z,6.53
2024-03-24T15:37:32.560Z,6.81
2024-03-24T15:40:00.269Z,6.53
2024-03-24T15:42:27.770Z,5.31
2024-03-24T15:44:55.258Z,5.13
2024-03-24T15:47:25.306Z,4.44
2024-03-24T15:49:53.769Z,4.30
2024-03-24T15:52:21.675Z,3.95
2024-03-24T15:54:49.022Z,4.32
2024-03-24T15:57:30.242Z,4.97
2024-03-24T16:00:04.184Z,4.80
2024-03-24T16:02:36.727Z,5.41
2024-03-24T16:05:06.837Z,5.92
2024-03-24T16:07:40.289Z,6.73
2024-03-24T16:10:31.432Z,6.65
2024-03-24T16:13:18.519Z,6.69
2024-03-24T16:15:45.936Z,7.38
2024-03-24T16:18:16.265Z,6.95
2024-03-24T16:21:03.708Z,6.63
2024-03-24T16:23:33.691Z,7.24
2024-03-24T16:26:00.958Z,7.38
2024-03-24T16:28:29.119Z,6.52
2024-03-24T16:30:58.806Z,6.79
2024-03-24T16:33:29.523Z,7.10
2024-03-24T16:35:58.385Z,6.71
2024-03-24T16:38:26.062Z,7.70
2024-03-24T16:40:54.892Z,7.37
2024-03-24T16:43:23.434Z,6.57
2024-03-24T16:45:50.929Z,7.38
2024-03-24T16:48:19.015Z,8.36
2024-03-24T16:50:49.380Z,6.91
2024-03-24T16:53:17.105Z,5.36
2024-03-24T16:55:45.991Z,5.08
2024-03-24T16:58:16.802Z,4.69
2024-03-24T17:00:44.231Z,4.22
2024-03-24T17:03:11.747Z,3.53
2024-03-24T17:05:41.370Z,3.18
2024-03-24T17:08:11.264Z,2.93
2024-03-24T17:10:41.317Z,3.08
2024-03-24T17:13:09.859Z,2.89
2024-03-24T17:15:37.335Z,2.94
2024-03-24T17:18:05.037Z,3.30
2024-03-24T17:20:32.336Z,3.42
2024-03-24T17:23:00.174Z,3.38
2024-03-24T17:25:30.150Z,3.76
2024-03-24T17:27:57.712Z,3.60
2024-03-24T17:30:30.159Z,4.39
2024-03-24T17:32:58.030Z,4.19
2024-03-24T17:35:25.364Z,4.54
2024-03-24T17:37:52.740Z,4.70
2024-03-24T17:40:20.507Z,4.25
2024-03-24T17:42:50.496Z,4.73
2024-03-24T17:45:18.018Z,5.36
2024-03-24T17:47:46.623Z,4.02
2024-03-24T17:50:17.530Z,5.30
2024-03-24T17:52:45.685Z,9.94
2024-03-24T17:55:13.363Z,5.93
2024-03-24T17:57:40.791Z,4.78
2024-03-24T18:00:12.837Z,6.54
2024-03-24T18:02:40.533Z,11.42
2024-03-24T18:05:11.250Z,7.83
2024-03-24T18:07:58.355Z,7.30
2024-03-24T18:10:27.156Z,11.38
2024-03-24T18:12:54.722Z,9.08
2024-03-24T18:15:24.649Z,10.47
2024-03-24T18:17:52.105Z,7.88
2024-03-24T18:20:19.601Z,8.25
2024-03-24T18:22:48.427Z,6.90
2024-03-24T18:25:18.587Z,7.23
2024-03-24T18:27:46.410Z,5.22
2024-03-24T18:30:14.665Z,8.21
2024-03-24T18:32:47.567Z,6.83
2024-03-24T18:35:15.179Z,5.50
2024-03-24T18:37:44.940Z,5.55
2024-03-24T18:40:13.533Z,5.05
2024-03-24T18:42:40.932Z,4.99
2024-03-24T18:45:09.114Z,5.09
2024-03-24T18:47:37.567Z,6.24
2024-03-24T18:50:08.610Z,6.40
2024-03-24T18:52:37.360Z,5.98
2024-03-24T18:55:05.316Z,7.14
2024-03-24T18:57:33.197Z,6.88
2024-03-24T19:00:00.628Z,6.97
2024-03-24T19:02:28.285Z,7.01
2024-03-24T19:04:56.095Z,12.85
2024-03-24T19:07:25.975Z,7.13
2024-03-24T19:09:53.446Z,6.66
2024-03-24T19:12:20.903Z,7.06
2024-03-24T19:14:49.735Z,6.67
2024-03-24T19:17:17.115Z,7.25
2024-03-24T19:19:44.515Z,7.34
2024-03-24T19:22:12.893Z,7.86
2024-03-24T19:24:43.023Z,7.91
2024-03-24T19:27:10.408Z,8.00
2024-03-24T19:29:37.801Z,7.96
2024-03-24T19:32:05.663Z,7.15
2024-03-24T19:34:33.050Z,6.99
2024-03-24T19:37:00.446Z,6.86
2024-03-24T19:39:28.498Z,6.20
2024-03-24T19:41:58.649Z,7.24
2024-03-24T19:44:26.201Z,9.44
2024-03-24T19:46:53.806Z,10.06
2024-03-24T19:49:22.137Z,6.55
2024-03-24T19:51:49.694Z,5.72
2024-03-24T19:54:17.070Z,6.02
2024-03-24T19:56:44.810Z,6.78
2024-03-24T19:59:15.518Z,7.24
2024-03-24T20:01:43.089Z,7.24
2024-03-24T20:04:10.460Z,7.21
2024-03-24T20:06:37.883Z,7.24
2024-03-24T20:09:07.131Z,7.29
2024-03-24T20:11:34.577Z,7.81
2024-03-24T20:14:01.985Z,7.34
2024-03-24T20:16:31.901Z,6.59
2024-03-24T20:18:59.581Z,6.26
2024-03-24T20:21:27.029Z,6.59
2024-03-24T20:23:54.847Z,7.76
2024-03-24T20:26:22.813Z,7.11
2024-03-24T20:28:50.139Z,6.29
2024-03-24T20:31:17.574Z,7.30
2024-03-24T20:33:47.566Z,5.73
2024-03-24T20:36:15.411Z,5.97
2024-03-24T20:38:44.787Z,5.75
2024-03-24T20:41:13.859Z,6.20
2024-03-24T20:43:42.550Z,7.09
2024-03-24T20:46:10.495Z,6.53
2024-03-24T20:48:38.438Z,6.19
2024-03-24T20:51:08.692Z,5.44
2024-03-24T20:53:36.204Z,5.71
2024-03-24T20:56:04.560Z,5.30
2024-03-24T20:58:33.683Z,5.43
2024-03-24T21:01:01.151Z,5.21
2024-03-24T21:03:28.713Z,5.39
2024-03-24T21:05:57.211Z,5.52
2024-03-24T21:08:28.814Z,5.98
2024-03-24T21:10:56.442Z,6.25
2024-03-24T21:13:23.941Z,5.52
2024-03-24T21:15:51.667Z,5.41
2024-03-24T21:18:19.099Z,5.47
2024-03-24T21:20:46.645Z,5.39
2024-03-24T21:23:14.379Z,5.52
2024-03-24T21:25:44.292Z,5.65
2024-03-24T21:28:13.799Z,5.92
2024-03-24T21:30:42.934Z,6.03
2024-03-24T21:33:10.662Z,5.88
2024-03-24T21:35:38.024Z,5.85
2024-03-24T21:38:24.519Z,5.73
2024-03-24T21:41:13.426Z,6.13
2024-03-24T21:43:40.959Z,6.00
2024-03-24T21:46:08.317Z,6.47
2024-03-24T21:48:36.436Z,6.35
2024-03-24T21:51:04.380Z,6.08
2024-03-24T21:53:33.839Z,6.34
2024-03-24T21:56:06.343Z,6.74
2024-03-24T21:58:33.810Z,6.37
2024-03-24T22:01:01.199Z,6.48
2024-03-24T22:03:28.863Z,6.59
2024-03-24T22:05:56.467Z,5.88
2024-03-24T22:10:56.249Z,5.11
2024-03-24T22:13:26.264Z,5.07
2024-03-24T22:15:53.688Z,5.35
2024-03-24T22:18:22.742Z,5.21
2024-03-24T22:20:50.836Z,5.32
2024-03-24T22:23:18.590Z,5.47
2024-03-24T22:25:46.032Z,5.22
2024-03-24T22:28:13.736Z,5.19
2024-03-24T22:30:43.654Z,5.40
2024-03-24T22:33:12.364Z,4.70
2024-03-24T22:35:40.239Z,4.70
2024-03-24T22:38:07.957Z,4.52
2024-03-24T22:40:36.069Z,4.91
2024-03-24T22:43:03.919Z,4.91
2024-03-24T22:45:31.354Z,4.63
2024-03-24T22:48:01.393Z,4.45
2024-03-24T22:50:28.957Z,4.72
2024-03-24T22:52:56.700Z,4.99
2024-03-24T22:55:24.013Z,4.91
2024-03-24T22:57:53.850Z,5.20
2024-03-24T23:00:24.295Z,5.15
2024-03-24T23:02:51.702Z,4.78
2024-03-24T23:05:22.691Z,4.44
2024-03-24T23:07:50.885Z,4.66
2024-03-24T23:10:18.266Z,4.68
2024-03-24T23:12:47.105Z,4.87
2024-03-24T23:15:14.392Z,5.28
2024-03-24T23:17:41.824Z,4.99
2024-03-24T23:20:12.545Z,4.91
2024-03-24T23:22:42.553Z,5.06
2024-03-24T23:25:10.831Z,4.93
2024-03-24T23:27:38.568Z,5.36
2024-03-24T23:30:09.290Z,5.15
2024-03-24T23:32:36.732Z,4.84
2024-03-24T23:35:04.528Z,4.70
2024-03-24T23:37:31.864Z,4.85
2024-03-24T23:40:01.796Z,4.30
2024-03-24T23:42:29.246Z,5.16
2024-03-24T23:44:56.632Z,4.83
2024-03-24T23:47:24.356Z,4.96
2024-03-24T23:49:52.619Z,4.88
2024-03-24T23:52:20.023Z,4.50
2024-03-24T23:54:48.040Z,4.20
2024-03-24T23:57:19.052Z,4.18
2024-03-24T23:59:46.698Z,3.93
